Startpagina
METAR-TAF:

METAR-TAF

Vliegvelden :

Győr, Hongarije

breedte: 47-37-28N, lengte: 017-48-49E, hoogte: 129 m

Actueel weer

Dit bericht is 52 minuten geleden gemaakt, om 03:45 UTC
Wind 2 kt uit variabele richting
Temperatuur 13°C
Vochtigheid 77%
Druk 1021 hPa
Zicht 10 km of meer
geen wolken onder 1500 m en geen cumulonimbus

METAR: LHPR 230345Z AUTO VRB02KT CAVOK 13/09 Q1021 RMK BLU

Tijdstip: 06:37 (04:37 UTC)

Verwachting

Dit bericht is 11 uur en het 22 minuten geleden gemaakt, om 17:15 UTC
Verwachting geldig van 22 om 18 UTC tot 23 om 03 UTC
Wind 5 kt uit het westzuidwesten
Zicht 10 km of meer
geen wolken onder 1500 m en geen cumulonimbus
Wijzigt naar
van 23 om 00 UTC tot 23 om 03 UTC
Verspreide wolken op 3000 ft
Gebroken wolken op 6000 ft

TAF: LHPR 221715Z 2218/2303 24005KT CAVOK BECMG 2300/2303 SCT030 BKN060

Waarnemingen en weersverwachtingen van meer dan 4000 vliegvelden (METAR en TAF).

De beschikbare stations zijn de gele en rode punten op de kaart.

Ga met uw muis naar het station om de naam te zien.

Klik dan om waarnemingen en weersverwachtingen te zien.

kaart wijzigen: klik op de groene knoppen met een zwart kruis om in te zoomen, op de groene knop met een streepje om uit te zoomen of op de groene pijlen voor aangrenzende kaarten.


METAR-TAF: